createdAt,value
2022-10-23T00:02:25.129Z,98160.94
2022-10-23T00:04:55.529Z,98160.16
2022-10-23T00:07:25.569Z,98153.59
2022-10-23T00:09:56.092Z,98148.88
2022-10-23T00:12:28.152Z,98141.13
2022-10-23T00:14:58.178Z,98136.84
2022-10-23T00:17:32.767Z,98127.81
2022-10-23T00:20:02.840Z,98124.00
2022-10-23T00:22:33.104Z,98117.25
2022-10-23T00:25:03.176Z,98121.25
2022-10-23T00:27:33.301Z,98116.63
2022-10-23T00:30:04.283Z,98124.66
2022-10-23T00:32:37.055Z,98122.16
2022-10-23T00:35:08.736Z,98141.25
2022-10-23T00:37:38.792Z,98141.59
2022-10-23T00:40:11.821Z,98138.47
2022-10-23T00:42:42.177Z,98138.13
2022-10-23T00:45:26.516Z,98139.00
2022-10-23T00:47:59.239Z,98147.38
2022-10-23T00:50:34.166Z,98136.63
2022-10-23T00:53:06.943Z,98136.88
2022-10-23T00:55:38.711Z,98122.44
2022-10-23T00:58:09.638Z,98125.53
2022-10-23T01:00:49.211Z,98119.66
2022-10-23T01:03:26.310Z,98114.63
2022-10-23T01:06:05.185Z,98117.13
2022-10-23T01:08:46.112Z,98126.84
2022-10-23T01:11:25.015Z,98131.03
2022-10-23T01:14:05.722Z,98127.09
2022-10-23T01:16:49.134Z,98128.19
2022-10-23T01:19:30.442Z,98130.16
2022-10-23T01:22:21.278Z,98132.59
2022-10-23T01:25:01.020Z,98123.31
2022-10-23T01:27:39.493Z,98126.13
2022-10-23T01:30:14.030Z,98114.56
2022-10-23T01:32:53.796Z,98109.50
2022-10-23T01:35:31.916Z,98105.88
2022-10-23T01:38:14.871Z,98110.97
2022-10-23T01:40:53.132Z,98111.44
2022-10-23T01:43:33.040Z,98106.19
2022-10-23T01:46:09.317Z,98099.22
2022-10-23T01:48:42.100Z,98094.09
2022-10-23T01:51:16.043Z,98090.94
2022-10-23T01:53:51.900Z,98096.31
2022-10-23T01:56:35.921Z,98089.56
2022-10-23T01:59:16.445Z,98092.28
2022-10-23T02:01:52.482Z,98077.75
2022-10-23T02:04:32.379Z,98083.97
2022-10-23T02:07:02.648Z,98088.00
2022-10-23T02:09:33.396Z,98086.34
2022-10-23T02:12:11.125Z,98081.09
2022-10-23T02:14:57.006Z,98079.69
2022-10-23T02:17:41.085Z,98070.81
2022-10-23T02:20:23.009Z,98068.91
2022-10-23T02:23:05.653Z,98073.13
2022-10-23T02:25:45.146Z,98070.19
2022-10-23T02:28:21.436Z,98068.72
2022-10-23T02:30:54.948Z,98073.13
2022-10-23T02:33:27.535Z,98062.25
2022-10-23T02:35:57.813Z,98062.88
2022-10-23T02:38:40.438Z,98056.09
2022-10-23T02:41:30.299Z,98057.69
2022-10-23T02:44:34.762Z,98061.19
2022-10-23T02:47:23.878Z,98054.25
2022-10-23T02:50:08.773Z,98055.91
2022-10-23T02:52:53.522Z,98035.59
2022-10-23T02:55:40.642Z,98030.25
2022-10-23T02:58:22.870Z,98029.03
2022-10-23T03:01:02.868Z,98035.06
2022-10-23T03:03:41.899Z,98034.28
2022-10-23T03:06:12.417Z,98028.06
2022-10-23T03:08:47.547Z,98020.97
2022-10-23T03:11:17.914Z,98031.06
2022-10-23T03:13:48.104Z,98031.06
2022-10-23T03:16:18.314Z,98031.94
2022-10-23T03:18:57.598Z,98027.31
2022-10-23T03:21:27.816Z,98027.53
2022-10-23T03:23:58.105Z,98028.41
2022-10-23T03:26:37.147Z,98023.28
2022-10-23T03:29:07.901Z,98023.59
2022-10-23T03:31:44.474Z,98018.00
2022-10-23T03:34:17.057Z,98016.44
2022-10-23T03:36:47.097Z,98018.88
2022-10-23T03:39:17.790Z,98019.13
2022-10-23T03:41:47.994Z,98010.78
2022-10-23T03:44:19.663Z,98011.03
2022-10-23T03:46:49.648Z,98003.63
2022-10-23T03:49:22.394Z,98005.41
2022-10-23T03:51:53.014Z,98007.81
2022-10-23T03:54:27.157Z,98002.38
2022-10-23T03:56:58.664Z,98000.63
2022-10-23T03:59:29.749Z,97995.06
2022-10-23T04:02:01.912Z,98001.72
2022-10-23T04:04:35.042Z,97993.97
2022-10-23T04:07:05.035Z,97999.66
2022-10-23T04:09:36.048Z,97999.09
2022-10-23T04:12:07.992Z,97998.31
2022-10-23T04:14:38.157Z,98005.69
2022-10-23T04:17:08.262Z,98010.06
2022-10-23T04:19:40.928Z,98010.91
2022-10-23T04:22:10.978Z,98005.28
2022-10-23T04:24:45.444Z,98002.84
2022-10-23T04:27:20.535Z,98008.72
2022-10-23T04:29:54.312Z,98005.09
2022-10-23T04:32:26.851Z,98011.38
2022-10-23T04:34:59.573Z,98011.97
2022-10-23T04:37:29.771Z,98014.53
2022-10-23T04:39:59.949Z,98013.56
2022-10-23T04:42:30.050Z,98013.22
2022-10-23T04:45:02.511Z,98010.78
2022-10-23T04:47:32.956Z,98013.22
2022-10-23T04:50:06.668Z,98008.50
2022-10-23T04:52:57.769Z,98000.88
2022-10-23T04:55:28.023Z,98005.59
2022-10-23T04:58:22.119Z,98003.84
2022-10-23T05:00:54.063Z,98012.50
2022-10-23T05:03:28.747Z,98014.91
2022-10-23T05:06:01.565Z,98007.06
2022-10-23T05:08:43.268Z,98003.91
2022-10-23T05:11:45.718Z,98001.72
2022-10-23T05:14:21.950Z,98003.84
2022-10-23T05:16:57.802Z,97996.81
2022-10-23T05:19:36.849Z,98001.59
2022-10-23T05:22:11.230Z,97997.84
2022-10-23T05:24:54.180Z,97991.91
2022-10-23T05:27:27.966Z,97996.56
2022-10-23T05:29:59.179Z,97998.34
2022-10-23T05:32:35.591Z,97993.84
2022-10-23T05:35:13.932Z,97994.81
2022-10-23T05:37:51.478Z,97999.16
2022-10-23T05:40:25.302Z,97985.50
2022-10-23T05:43:01.775Z,97986.81
2022-10-23T05:45:48.970Z,97989.25
2022-10-23T05:48:34.544Z,97978.53
2022-10-23T05:51:10.577Z,97982.16
2022-10-23T05:53:52.149Z,97983.38
2022-10-23T05:56:44.178Z,97971.50
2022-10-23T05:59:23.620Z,97974.00
2022-10-23T06:02:12.039Z,97978.59
2022-10-23T06:04:52.992Z,97970.84
2022-10-23T06:07:35.863Z,97969.19
2022-10-23T06:10:12.015Z,97980.41
2022-10-23T06:12:48.593Z,97975.00
2022-10-23T06:15:21.127Z,97971.31
2022-10-23T06:18:04.134Z,97966.13
2022-10-23T06:20:39.942Z,97959.94
2022-10-23T06:23:17.774Z,97959.78
2022-10-23T06:26:20.297Z,97960.56
2022-10-23T06:29:04.746Z,97961.13
2022-10-23T06:31:34.847Z,97963.09
2022-10-23T06:34:06.448Z,97961.28
2022-10-23T06:36:38.003Z,97968.44
2022-10-23T06:39:32.163Z,97968.56
2022-10-23T06:42:23.452Z,97962.13
2022-10-23T06:45:03.361Z,97958.88
2022-10-23T06:48:05.323Z,97958.34
2022-10-23T06:50:53.759Z,97960.16
2022-10-23T06:53:30.087Z,97958.28
2022-10-23T06:56:11.476Z,97962.22
2022-10-23T06:58:44.314Z,97961.84
2022-10-23T07:01:19.274Z,97962.56
2022-10-23T07:03:51.411Z,97963.22
2022-10-23T07:06:27.147Z,97960.50
2022-10-23T07:08:57.437Z,97959.38
2022-10-23T07:11:46.101Z,97958.59
2022-10-23T07:14:18.807Z,97964.22
2022-10-23T07:16:49.202Z,97967.38
2022-10-23T07:19:19.200Z,97973.50
2022-10-23T07:21:56.846Z,97968.63
2022-10-23T07:24:40.242Z,97966.84
2022-10-23T07:27:42.780Z,97973.09
2022-10-23T07:30:18.442Z,97969.56
2022-10-23T07:32:53.845Z,97963.69
2022-10-23T07:35:46.207Z,97972.69
2022-10-23T07:38:22.103Z,97973.09
2022-10-23T07:40:59.282Z,97972.13
2022-10-23T07:43:29.959Z,97976.59
2022-10-23T07:46:02.767Z,97979.72
2022-10-23T07:48:41.306Z,97995.03
2022-10-23T07:51:16.585Z,97990.66
2022-10-23T07:53:53.032Z,97985.53
2022-10-23T07:56:52.359Z,97991.28
2022-10-23T07:59:34.562Z,97981.44
2022-10-23T08:02:20.788Z,97978.75
2022-10-23T08:04:52.908Z,97970.28
2022-10-23T08:07:35.105Z,97966.13
2022-10-23T08:10:05.822Z,97968.94
2022-10-23T08:12:36.963Z,97972.44
2022-10-23T08:15:08.573Z,97969.69
2022-10-23T08:17:53.394Z,97960.53
2022-10-23T08:20:42.319Z,97953.22
2022-10-23T08:23:15.833Z,97948.72
2022-10-23T08:25:47.130Z,97943.19
2022-10-23T08:28:19.381Z,97949.47
2022-10-23T08:30:57.887Z,97950.28
2022-10-23T08:33:30.561Z,97942.19
2022-10-23T08:36:00.629Z,97941.91
2022-10-23T08:38:36.333Z,97941.50
2022-10-23T08:41:17.215Z,97932.69
2022-10-23T08:44:04.413Z,97923.78
2022-10-23T08:46:46.971Z,97922.16
2022-10-23T08:49:52.751Z,97922.97
2022-10-23T08:52:30.295Z,97927.13
2022-10-23T08:55:12.716Z,97926.06
2022-10-23T08:57:53.750Z,97929.00
2022-10-23T09:00:24.590Z,97925.41
2022-10-23T09:02:56.780Z,97929.22
2022-10-23T09:05:37.465Z,97926.34
2022-10-23T09:08:36.813Z,97920.94
2022-10-23T09:11:10.896Z,97927.63
2022-10-23T09:14:05.149Z,97920.31
2022-10-23T09:16:51.717Z,97922.38
2022-10-23T09:19:28.190Z,97914.53
2022-10-23T09:22:01.677Z,97925.69
2022-10-23T09:24:33.489Z,97921.47
2022-10-23T09:29:56.489Z,97928.63
2022-10-23T09:32:37.832Z,97914.31
2022-10-23T09:35:10.562Z,97914.88
2022-10-23T09:37:53.324Z,97910.47
2022-10-23T09:40:34.079Z,97913.16
2022-10-23T09:43:06.746Z,97904.63
2022-10-23T09:45:41.749Z,97900.25
2022-10-23T09:48:17.350Z,97892.47
2022-10-23T09:50:56.644Z,97879.38
2022-10-23T09:53:37.595Z,97880.28
2022-10-23T09:56:22.326Z,97876.47
2022-10-23T09:58:59.829Z,97878.66
2022-10-23T10:01:33.717Z,97879.47
2022-10-23T10:04:39.185Z,97875.94
2022-10-23T10:07:21.716Z,97896.66
2022-10-23T10:09:56.738Z,97889.53
2022-10-23T10:12:46.386Z,97887.63
2022-10-23T10:15:28.491Z,97895.16
2022-10-23T10:18:14.268Z,97889.75
2022-10-23T10:21:00.902Z,97890.78
2022-10-23T10:23:43.080Z,97886.34
2022-10-23T10:26:34.880Z,97882.22
2022-10-23T10:29:29.812Z,97874.84
2022-10-23T10:32:16.657Z,97865.09
2022-10-23T10:34:57.633Z,97871.59
2022-10-23T10:37:49.394Z,97871.84
2022-10-23T10:40:33.266Z,97871.88
2022-10-23T10:43:30.957Z,97854.13
2022-10-23T10:48:54.081Z,97837.38
2022-10-23T10:52:12.993Z,97825.44
2022-10-23T10:54:57.265Z,97825.03
2022-10-23T10:57:36.493Z,97829.34
2022-10-23T11:00:18.725Z,97833.97
2022-10-23T11:02:52.369Z,97842.06
2022-10-23T11:05:33.673Z,97845.09
2022-10-23T11:08:10.355Z,97834.41
2022-10-23T11:10:46.106Z,97838.25
2022-10-23T11:13:29.696Z,97841.91
2022-10-23T11:16:12.461Z,97828.50
2022-10-23T11:18:47.379Z,97813.50
2022-10-23T11:21:36.856Z,97814.25
2022-10-23T11:24:57.268Z,97817.63
2022-10-23T11:28:21.195Z,97808.28
2022-10-23T11:31:16.478Z,97791.47
2022-10-23T11:34:41.594Z,97790.34
2022-10-23T11:37:11.803Z,97790.28
2022-10-23T11:39:43.085Z,97784.97
2022-10-23T11:42:34.652Z,97779.00
2022-10-23T11:45:04.728Z,97772.69
2022-10-23T11:47:41.707Z,97770.22
2022-10-23T11:50:28.481Z,97766.09
2022-10-23T11:53:15.609Z,97770.09
2022-10-23T11:56:09.136Z,97763.06
2022-10-23T11:58:48.635Z,97770.38
2022-10-23T12:01:33.702Z,97759.97
2022-10-23T12:04:23.258Z,97748.75
2022-10-23T12:06:57.969Z,97741.91
2022-10-23T12:09:39.891Z,97741.28
2022-10-23T12:12:30.294Z,97748.56
2022-10-23T12:15:26.044Z,97743.78
2022-10-23T12:17:58.643Z,97738.59
2022-10-23T12:20:53.277Z,97733.81
2022-10-23T12:24:05.705Z,97726.94
2022-10-23T12:26:57.865Z,97725.47
2022-10-23T12:29:46.447Z,97728.09
2022-10-23T12:32:40.521Z,97719.50
2022-10-23T12:35:43.192Z,97717.19
2022-10-23T12:38:21.026Z,97718.28
2022-10-23T12:40:57.809Z,97708.00
2022-10-23T12:43:32.474Z,97705.28
2022-10-23T12:46:18.209Z,97700.66
2022-10-23T12:48:53.240Z,97688.13
2022-10-23T12:51:28.074Z,97687.41
2022-10-23T12:54:01.514Z,97689.56
2022-10-23T12:56:39.155Z,97679.00
2022-10-23T12:59:20.231Z,97680.59
2022-10-23T13:01:52.833Z,97680.38
2022-10-23T13:04:31.923Z,97673.75
2022-10-23T13:07:06.002Z,97667.94
2022-10-23T13:09:45.244Z,97657.88
2022-10-23T13:12:34.547Z,97640.00
2022-10-23T13:15:19.256Z,97628.50
2022-10-23T13:18:03.081Z,97641.28
2022-10-23T13:20:38.218Z,97656.16
2022-10-23T13:23:21.330Z,97647.91
2022-10-23T13:26:02.074Z,97649.72
2022-10-23T13:28:35.390Z,97645.75
2022-10-23T13:31:10.722Z,97642.53
2022-10-23T13:33:42.884Z,97638.53
2022-10-23T13:36:27.492Z,97637.50
2022-10-23T13:39:15.439Z,97642.06
2022-10-23T13:41:49.613Z,97636.94
2022-10-23T13:44:24.148Z,97652.25
2022-10-23T13:46:55.039Z,97638.00
2022-10-23T13:49:25.074Z,97632.94
2022-10-23T13:51:58.047Z,97632.66
2022-10-23T13:54:31.440Z,97632.34
2022-10-23T13:57:04.036Z,97633.41
2022-10-23T13:59:34.067Z,97636.31
2022-10-23T14:02:05.616Z,97639.25
2022-10-23T14:04:35.941Z,97629.16
2022-10-23T14:07:05.950Z,97642.88
2022-10-23T14:09:35.941Z,97638.19
2022-10-23T14:12:08.907Z,97632.53
2022-10-23T14:14:39.994Z,97635.81
2022-10-23T14:17:10.060Z,97632.59
2022-10-23T14:19:40.271Z,97629.09
2022-10-23T14:22:10.381Z,97632.97
2022-10-23T14:24:40.579Z,97626.38
2022-10-23T14:27:13.286Z,97610.38
2022-10-23T14:29:44.191Z,97622.03
2022-10-23T14:32:14.209Z,97614.94
2022-10-23T14:34:46.533Z,97618.09
2022-10-23T14:37:17.945Z,97623.34
2022-10-23T14:39:50.122Z,97621.38
2022-10-23T14:42:22.920Z,97625.34
2022-10-23T14:44:53.236Z,97626.75
2022-10-23T14:47:23.958Z,97623.22
2022-10-23T14:49:56.232Z,97617.13
2022-10-23T14:52:27.099Z,97608.69
2022-10-23T14:54:57.289Z,97603.34
2022-10-23T14:57:29.921Z,97608.06
2022-10-23T14:59:59.922Z,97604.25
2022-10-23T15:02:30.013Z,97603.06
2022-10-23T15:05:00.145Z,97605.38
2022-10-23T15:07:30.303Z,97598.91
2022-10-23T15:10:00.393Z,97591.63
2022-10-23T15:12:33.052Z,97597.03
2022-10-23T15:15:03.131Z,97589.47
2022-10-23T15:17:34.094Z,97591.28
2022-10-23T15:20:04.527Z,97586.06
2022-10-23T15:22:34.575Z,97581.69
2022-10-23T15:25:04.568Z,97593.91
2022-10-23T15:27:37.825Z,97583.91
2022-10-23T15:30:09.605Z,97578.22
2022-10-23T15:32:39.747Z,97582.94
2022-10-23T15:35:10.934Z,97581.66
2022-10-23T15:37:41.221Z,97572.31
2022-10-23T15:40:13.235Z,97567.13
2022-10-23T15:42:47.603Z,97562.00
2022-10-23T15:45:17.579Z,97554.50
2022-10-23T15:47:47.635Z,97557.16
2022-10-23T15:50:17.773Z,97552.75
2022-10-23T15:52:47.811Z,97541.91
2022-10-23T15:55:18.106Z,97545.03
2022-10-23T15:57:50.739Z,97543.56
2022-10-23T16:00:21.722Z,97544.09
2022-10-23T16:02:52.875Z,97548.25
2022-10-23T16:05:22.929Z,97548.00
2022-10-23T16:07:52.968Z,97532.22
2022-10-23T16:10:23.624Z,97544.63
2022-10-23T16:12:56.476Z,97549.53
2022-10-23T16:15:26.475Z,97563.44
2022-10-23T16:17:56.519Z,97568.84
2022-10-23T16:20:26.514Z,97575.75
2022-10-23T16:22:57.307Z,97570.25
2022-10-23T16:25:27.322Z,97578.19
2022-10-23T16:28:01.600Z,97581.16
2022-10-23T16:30:31.986Z,97571.00
2022-10-23T16:33:01.991Z,97575.28
2022-10-23T16:35:31.991Z,97573.97
2022-10-23T16:38:11.054Z,97559.50
2022-10-23T16:40:41.067Z,97560.53
2022-10-23T16:43:32.803Z,97570.84
2022-10-23T16:46:16.742Z,97553.09
2022-10-23T16:48:47.030Z,97565.25
2022-10-23T16:51:20.819Z,97561.59
2022-10-23T16:53:51.231Z,97549.19
2022-10-23T16:56:25.146Z,97550.47
2022-10-23T17:01:32.338Z,97546.88
2022-10-23T17:04:02.871Z,97544.78
2022-10-23T17:06:35.722Z,97548.44
2022-10-23T17:09:07.776Z,97551.28
2022-10-23T17:11:40.223Z,97556.97
2022-10-23T17:14:18.606Z,97568.84
2022-10-23T17:16:51.974Z,97580.00
2022-10-23T17:19:43.928Z,97573.88
2022-10-23T17:22:15.328Z,97571.38
2022-10-23T17:24:50.131Z,97582.19
2022-10-23T17:27:24.077Z,97588.84
2022-10-23T17:29:56.836Z,97576.97
2022-10-23T17:32:26.845Z,97571.31
2022-10-23T17:34:56.895Z,97577.47
2022-10-23T17:37:26.882Z,97589.56
2022-10-23T17:40:00.903Z,97617.00
2022-10-23T17:42:32.049Z,97619.44
2022-10-23T17:45:04.605Z,97622.06
2022-10-23T17:47:34.610Z,97615.34
2022-10-23T17:50:06.446Z,97617.88
2022-10-23T17:52:36.453Z,97619.44
2022-10-23T17:55:06.987Z,97627.50
2022-10-23T17:57:37.083Z,97620.41
2022-10-23T18:00:11.142Z,97632.47
2022-10-23T18:02:43.949Z,97619.78
2022-10-23T18:05:13.989Z,97619.66
2022-10-23T18:07:44.605Z,97605.41
2022-10-23T18:10:16.337Z,97629.09
2022-10-23T18:12:46.372Z,97605.09
2022-10-23T18:15:19.173Z,97604.41
2022-10-23T18:17:49.182Z,97618.31
2022-10-23T18:20:19.251Z,97616.38
2022-10-23T18:22:49.344Z,97644.66
2022-10-23T18:25:19.395Z,97646.53
2022-10-23T18:27:49.381Z,97657.09
2022-10-23T18:30:22.162Z,97665.94
2022-10-23T18:32:52.198Z,97670.59
2022-10-23T18:35:22.228Z,97676.84
2022-10-23T18:37:52.218Z,97677.91
2022-10-23T18:40:25.706Z,97682.28
2022-10-23T18:42:58.025Z,97692.09
2022-10-23T18:45:30.699Z,97711.88
2022-10-23T18:48:00.758Z,97729.91
2022-10-23T18:50:31.140Z,97724.47
2022-10-23T18:53:01.124Z,97698.94
2022-10-23T18:55:31.196Z,97724.47
2022-10-23T18:58:01.220Z,97712.41
2022-10-23T19:00:33.908Z,97700.03
2022-10-23T19:03:03.894Z,97694.88
2022-10-23T19:05:33.935Z,97740.66
2022-10-23T19:08:04.157Z,97724.69
2022-10-23T19:10:36.553Z,97731.75
2022-10-23T19:13:06.741Z,97729.91
2022-10-23T19:15:40.732Z,97726.69
2022-10-23T19:18:11.876Z,97729.31
2022-10-23T19:20:45.190Z,97730.63
2022-10-23T19:23:16.127Z,97731.66
2022-10-23T19:25:48.333Z,97739.91
2022-10-23T19:28:19.010Z,97727.09
2022-10-23T19:30:51.811Z,97734.09
2022-10-23T19:33:21.845Z,97744.09
2022-10-23T19:35:51.814Z,97742.31
2022-10-23T19:38:21.805Z,97750.56
2022-10-23T19:40:51.829Z,97736.13
2022-10-23T19:43:21.817Z,97739.53
2022-10-23T19:45:54.434Z,97736.28
2022-10-23T19:48:24.477Z,97728.81
2022-10-23T19:50:54.532Z,97733.97
2022-10-23T19:53:24.599Z,97736.59
2022-10-23T19:56:03.394Z,97745.66
2022-10-23T19:58:33.453Z,97739.63
2022-10-23T20:01:14.323Z,97737.28
2022-10-23T20:03:48.771Z,97720.47
2022-10-23T20:06:23.730Z,97730.63
2022-10-23T20:08:54.371Z,97733.03
2022-10-23T20:11:28.235Z,97735.41
2022-10-23T20:13:59.659Z,97736.41
2022-10-23T20:16:35.363Z,97729.31
2022-10-23T20:19:08.189Z,97723.78
2022-10-23T20:21:38.917Z,97732.69
2022-10-23T20:24:11.209Z,97732.53
2022-10-23T20:26:43.899Z,97732.16
2022-10-23T20:29:14.478Z,97717.56
2022-10-23T20:31:47.347Z,97730.59
2022-10-23T20:34:17.496Z,97734.25
2022-10-23T20:36:50.620Z,97724.03
2022-10-23T20:39:25.467Z,97729.47
2022-10-23T20:41:57.230Z,97736.72
2022-10-23T20:44:27.507Z,97731.94
2022-10-23T20:47:00.193Z,97736.59
2022-10-23T20:49:30.181Z,97733.03
2022-10-23T20:52:00.417Z,97739.53
2022-10-23T20:54:31.830Z,97735.66
2022-10-23T20:57:01.905Z,97738.50
2022-10-23T20:59:31.893Z,97741.31
2022-10-23T21:02:04.571Z,97747.25
2022-10-23T21:04:34.700Z,97746.00
2022-10-23T21:07:09.905Z,97743.91
2022-10-23T21:09:40.754Z,97752.47
2022-10-23T21:12:11.954Z,97764.78
2022-10-23T21:14:42.737Z,97748.47
2022-10-23T21:17:17.627Z,97765.09
2022-10-23T21:19:47.973Z,97761.97
2022-10-23T21:22:18.005Z,97756.75
2022-10-23T21:24:48.203Z,97767.13
2022-10-23T21:27:18.206Z,97772.81
2022-10-23T21:29:48.197Z,97774.81
2022-10-23T21:32:21.302Z,97777.00
2022-10-23T21:34:51.908Z,97767.22
2022-10-23T21:37:21.861Z,97774.19
2022-10-23T21:39:52.203Z,97780.13
2022-10-23T21:42:22.322Z,97778.31
2022-10-23T21:44:52.293Z,97772.13
2022-10-23T21:47:24.849Z,97777.03
2022-10-23T21:49:54.876Z,97767.19
2022-10-23T21:52:24.935Z,97765.34
2022-10-23T21:54:55.547Z,97769.28
2022-10-23T21:57:25.580Z,97759.97
2022-10-23T21:59:57.490Z,97760.47
2022-10-23T22:02:30.258Z,97762.31
2022-10-23T22:05:00.277Z,97751.16
2022-10-23T22:07:30.287Z,97751.19
2022-10-23T22:10:00.594Z,97743.44
2022-10-23T22:12:30.599Z,97743.44
2022-10-23T22:15:01.058Z,97739.53
2022-10-23T22:17:33.611Z,97737.47
2022-10-23T22:20:04.156Z,97734.59
2022-10-23T22:22:34.584Z,97742.84
2022-10-23T22:25:04.784Z,97745.88
2022-10-23T22:27:34.771Z,97739.34
2022-10-23T22:30:04.994Z,97737.50
2022-10-23T22:32:38.298Z,97732.91
2022-10-23T22:35:09.973Z,97729.03
2022-10-23T22:37:39.960Z,97725.63
2022-10-23T22:40:11.846Z,97723.84
2022-10-23T22:42:42.004Z,97722.06
2022-10-23T22:45:13.124Z,97726.94
2022-10-23T22:47:45.773Z,97725.34
2022-10-23T22:50:15.887Z,97735.19
2022-10-23T22:52:46.161Z,97726.31
2022-10-23T22:55:16.486Z,97725.81
2022-10-23T22:57:46.891Z,97732.00
2022-10-23T23:00:18.825Z,97735.28
2022-10-23T23:02:51.414Z,97738.34
2022-10-23T23:05:21.797Z,97735.19
2022-10-23T23:07:51.818Z,97737.19
2022-10-23T23:10:21.850Z,97743.34
2022-10-23T23:12:53.810Z,97748.22
2022-10-23T23:15:23.834Z,97746.97
2022-10-23T23:17:56.457Z,97750.53
2022-10-23T23:20:26.495Z,97757.66
2022-10-23T23:22:56.659Z,97753.78
2022-10-23T23:25:26.681Z,97756.28
2022-10-23T23:27:56.762Z,97756.66
2022-10-23T23:30:27.001Z,97761.22
2022-10-23T23:32:59.590Z,97760.63
2022-10-23T23:35:29.802Z,97764.44
2022-10-23T23:38:00.024Z,97762.28
2022-10-23T23:40:30.167Z,97762.22
2022-10-23T23:43:00.269Z,97761.44
2022-10-23T23:45:30.596Z,97755.47
2022-10-23T23:48:03.397Z,97743.94
2022-10-23T23:50:33.491Z,97737.53
2022-10-23T23:53:03.641Z,97743.06
2022-10-23T23:55:33.665Z,97738.78
2022-10-23T23:58:03.777Z,97731.34
